Portada
METAR-TAF:

METAR-TAF

Aeroports :

Iqaluit, Nunavut, Canadà

latitud: 63-45N, longitud: 068-33W, altitud: 34 m

Observació

L'informe es va fer fa 25 minuts, a les 12:00 UTC
Vent 7 kt del Nord/Nord-Oest
Temperatura -2°C
Humitat 80%
Pressió 1022 hPa
Visibilitat: 48.3 km
Cel cobert a una alçada de 2400 ft

METAR: CYFB 221200Z 33007KT 30SM OVC024 M02/M05 A3018 RMK SC8 SLP224

Hora: 08:25 (12:25 UTC)

Pronòstic

L'informe es va fer fa 45 minuts, a les 11:40 UTC
Pronòstic vàlid del 22 a les 12 UTC al 23 a les 12 UTC
Vent 8 kt del Nord/Nord-Oest
Visibilitat: 10 km
Núvols disperses a una alçada de 1500 ft
Cel cobert a una alçada de 2500 ft
Temporalment
l' 22 a les 12 UTC al 23 a les 12 UTC
Cel ennuvolat a una alçada de 1500 ft
Cel cobert a una alçada de 2500 ft

TAF: CYFB 221140Z 2212/2312 34008KT P6SM SCT015 OVC025 TEMPO 2212/2312 BKN015 OVC025 RMK NXT FCST BY 221800Z

Observacions i pronòstics meteorològics de més de 4000 aeroports (METAR i TAF).

Les estacions disponibles són els punts grocs i vermells al mapa.

Posi el ratolí al punt desitjat per veure el nom de l'estació.

Feu clic per veure les observacions i els pronòstics meteorològics.

Per canviar el mapa: feu clic els botons verds amb una creu de color negre per apropar; al botó verd amb un guió per allunyar la imatge; o en les fletxes verdes per a mapes adjacents.


METAR-TAF: